createdAt,value
2023-01-29T00:00:10.092Z,0.52
2023-01-29T00:02:40.036Z,0.42
2023-01-29T00:05:25.951Z,0.26
2023-01-29T00:07:54.675Z,0.10
2023-01-29T00:10:22.623Z,-0.03
2023-01-29T00:12:50.104Z,-0.07
2023-01-29T00:15:18.518Z,-0.15
2023-01-29T00:17:45.816Z,-0.18
2023-01-29T00:20:14.728Z,-0.20
2023-01-29T00:22:42.080Z,-0.12
2023-01-29T00:25:10.219Z,-0.11
2023-01-29T00:27:37.448Z,-0.17
2023-01-29T00:30:11.987Z,-0.26
2023-01-29T00:32:42.679Z,-0.24
2023-01-29T00:35:10.614Z,-0.08
2023-01-29T00:37:38.283Z,-0.14
2023-01-29T00:40:06.620Z,-0.29
2023-01-29T00:42:52.580Z,-0.39
2023-01-29T00:45:19.803Z,-0.54
2023-01-29T00:47:47.133Z,-0.67
2023-01-29T00:50:14.707Z,-0.70
2023-01-29T00:52:42.175Z,-0.67
2023-01-29T00:55:11.475Z,-0.72
2023-01-29T00:57:39.159Z,-0.56
2023-01-29T01:00:12.542Z,-0.55
2023-01-29T01:02:58.693Z,-0.56
2023-01-29T01:05:27.323Z,-0.59
2023-01-29T01:07:57.960Z,-0.57
2023-01-29T01:10:33.681Z,-0.53
2023-01-29T01:13:05.779Z,-0.49
2023-01-29T01:15:40.048Z,-0.63
2023-01-29T01:18:07.555Z,-0.80
2023-01-29T01:20:36.165Z,-0.97
2023-01-29T01:23:04.000Z,-1.08
2023-01-29T01:25:31.193Z,-1.17
2023-01-29T01:30:27.837Z,-1.40
2023-01-29T01:32:56.068Z,-1.43
2023-01-29T01:35:23.402Z,-1.39
2023-01-29T01:37:50.762Z,-1.42
2023-01-29T01:40:22.699Z,-1.43
2023-01-29T01:42:57.828Z,-1.48
2023-01-29T01:45:36.087Z,-1.51
2023-01-29T01:48:17.815Z,-1.49
2023-01-29T01:50:58.807Z,-1.58
2023-01-29T01:53:41.364Z,-1.70
2023-01-29T01:56:26.603Z,-1.77
2023-01-29T01:58:59.118Z,-1.83
2023-01-29T02:01:30.689Z,-1.77
2023-01-29T02:04:24.941Z,-1.72
2023-01-29T02:07:12.450Z,-1.75
2023-01-29T02:09:49.352Z,-1.81
2023-01-29T02:12:17.163Z,-1.78
2023-01-29T02:14:45.001Z,-1.78
2023-01-29T02:17:19.602Z,-1.80
2023-01-29T02:20:14.522Z,-1.76
2023-01-29T02:23:36.103Z,-1.74
2023-01-29T02:26:20.906Z,-1.88
2023-01-29T02:29:27.136Z,-1.93
2023-01-29T02:32:23.296Z,-1.95
2023-01-29T02:35:34.656Z,-1.91
2023-01-29T02:38:30.906Z,-1.87
2023-01-29T02:41:45.374Z,-1.99
2023-01-29T02:44:29.224Z,-2.09
2023-01-29T02:47:24.142Z,-2.08
2023-01-29T02:50:05.469Z,-2.15
2023-01-29T02:52:58.717Z,-2.21
2023-01-29T02:55:52.940Z,-2.21
2023-01-29T02:58:34.923Z,-2.18
2023-01-29T03:01:36.262Z,-2.20
2023-01-29T03:04:16.677Z,-2.20
2023-01-29T03:06:55.072Z,-2.24
2023-01-29T03:09:35.013Z,-2.22
2023-01-29T03:12:33.988Z,-2.23
2023-01-29T03:15:19.059Z,-2.21
2023-01-29T03:18:16.738Z,-2.26
2023-01-29T03:20:54.150Z,-2.33
2023-01-29T03:23:51.061Z,-2.34
2023-01-29T03:26:41.352Z,-2.29
2023-01-29T03:29:28.429Z,-2.24
2023-01-29T03:32:09.433Z,-2.25
2023-01-29T03:34:52.015Z,-2.30
2023-01-29T03:37:31.235Z,-2.29
2023-01-29T03:39:58.971Z,-2.29
2023-01-29T03:43:16.141Z,-2.30
2023-01-29T03:46:14.315Z,-2.31
2023-01-29T03:49:21.519Z,-2.31
2023-01-29T03:52:08.186Z,-2.32
2023-01-29T03:54:48.632Z,-2.31
2023-01-29T03:57:36.860Z,-2.38
2023-01-29T04:00:22.709Z,-2.46
2023-01-29T04:03:26.682Z,-2.45
2023-01-29T04:06:31.850Z,-2.44
2023-01-29T04:09:28.049Z,-2.41
2023-01-29T04:12:11.088Z,-2.48
2023-01-29T04:14:42.112Z,-2.46
2023-01-29T04:17:23.738Z,-2.49
2023-01-29T04:20:01.593Z,-2.55
2023-01-29T04:22:38.196Z,-2.54
2023-01-29T04:25:16.143Z,-2.50
2023-01-29T04:28:13.745Z,-2.48
2023-01-29T04:30:58.155Z,-2.46
2023-01-29T04:34:03.182Z,-2.41
2023-01-29T04:37:40.354Z,-2.36
2023-01-29T04:40:48.244Z,-2.41
2023-01-29T04:43:36.709Z,-2.40
2023-01-29T04:46:56.963Z,-2.44
2023-01-29T04:50:04.319Z,-2.48
2023-01-29T04:52:49.215Z,-2.52
2023-01-29T04:55:45.489Z,-2.60
2023-01-29T04:58:59.511Z,-2.66
2023-01-29T05:01:30.572Z,-2.64
2023-01-29T05:04:02.447Z,-2.61
2023-01-29T05:06:32.736Z,-2.62
2023-01-29T05:09:01.897Z,-2.62
2023-01-29T05:11:33.058Z,-2.56
2023-01-29T05:14:07.066Z,-2.51
2023-01-29T05:16:43.542Z,-2.52
2023-01-29T05:19:16.174Z,-2.40
2023-01-29T05:21:48.080Z,-2.35
2023-01-29T05:24:25.387Z,-2.42
2023-01-29T05:27:13.422Z,-2.48
2023-01-29T05:29:47.422Z,-2.57
2023-01-29T05:32:15.999Z,-2.68
2023-01-29T05:34:43.311Z,-2.68
2023-01-29T05:37:11.175Z,-2.67
2023-01-29T05:39:38.346Z,-2.67
2023-01-29T05:42:05.593Z,-2.72
2023-01-29T05:44:32.796Z,-2.74
2023-01-29T05:47:02.596Z,-2.66
2023-01-29T05:49:29.932Z,-2.63
2023-01-29T05:51:57.154Z,-2.65
2023-01-29T05:54:24.384Z,-2.51
2023-01-29T05:56:51.623Z,-2.33
2023-01-29T05:59:19.010Z,-2.31
2023-01-29T06:01:46.354Z,-2.40
2023-01-29T06:04:13.609Z,-2.55
2023-01-29T06:06:40.881Z,-2.64
2023-01-29T06:09:12.251Z,-2.64
2023-01-29T06:11:40.097Z,-2.68
2023-01-29T06:14:07.682Z,-2.70
2023-01-29T06:16:35.451Z,-2.79
2023-01-29T06:19:02.960Z,-2.90
2023-01-29T06:21:30.176Z,-2.81
2023-01-29T06:23:57.443Z,-2.87
2023-01-29T06:26:24.902Z,-2.88
2023-01-29T06:28:52.190Z,-2.82
2023-01-29T06:31:36.960Z,-2.85
2023-01-29T06:34:05.020Z,-2.79
2023-01-29T06:36:32.385Z,-2.88
2023-01-29T06:38:59.803Z,-2.72
2023-01-29T06:41:27.255Z,-2.55
2023-01-29T06:43:55.743Z,-2.41
2023-01-29T06:46:23.110Z,-2.38
2023-01-29T06:48:50.446Z,-2.36
2023-01-29T06:51:17.977Z,-2.59
2023-01-29T06:53:46.406Z,-2.84
2023-01-29T06:56:14.030Z,-2.86
2023-01-29T06:58:44.634Z,-2.76
2023-01-29T07:01:25.383Z,-2.73
2023-01-29T07:04:02.965Z,-2.56
2023-01-29T07:06:31.076Z,-2.54
2023-01-29T07:08:58.718Z,-2.46
2023-01-29T07:11:26.055Z,-2.55
2023-01-29T07:13:55.406Z,-2.55
2023-01-29T07:16:23.570Z,-2.53
2023-01-29T07:18:57.060Z,-2.51
2023-01-29T07:21:28.084Z,-2.56
2023-01-29T07:23:55.806Z,-2.48
2023-01-29T07:26:24.740Z,-2.44
2023-01-29T07:28:51.976Z,-2.39
2023-01-29T07:31:19.581Z,-2.34
2023-01-29T07:33:47.058Z,-2.17
2023-01-29T07:36:15.142Z,-2.18
2023-01-29T07:38:42.622Z,-2.22
2023-01-29T07:41:11.838Z,-2.06
2023-01-29T07:43:40.775Z,-1.95
2023-01-29T07:46:08.084Z,-1.86
2023-01-29T07:48:39.805Z,-1.83
2023-01-29T07:51:07.188Z,-1.71
2023-01-29T07:53:34.633Z,-1.72
2023-01-29T07:56:02.624Z,-1.61
2023-01-29T07:58:29.893Z,-1.58
2023-01-29T08:00:58.658Z,-1.49
2023-01-29T08:03:26.053Z,-1.20
2023-01-29T08:05:53.285Z,-0.96
2023-01-29T08:08:20.784Z,-0.91
2023-01-29T08:10:47.988Z,-0.97
2023-01-29T08:13:15.361Z,-1.04
2023-01-29T08:15:46.226Z,-0.72
2023-01-29T08:18:16.846Z,-0.58
2023-01-29T08:20:44.088Z,-0.64
2023-01-29T08:23:16.589Z,-0.63
2023-01-29T08:25:44.292Z,-0.55
2023-01-29T08:28:12.377Z,-0.47
2023-01-29T08:30:40.008Z,-0.34
2023-01-29T08:33:08.664Z,-0.30
2023-01-29T08:35:47.652Z,-0.22
2023-01-29T08:38:14.976Z,-0.09
2023-01-29T08:40:42.295Z,-0.02
2023-01-29T08:43:13.640Z,0.09
2023-01-29T08:45:44.046Z,0.20
2023-01-29T08:48:11.834Z,0.26
2023-01-29T08:50:39.383Z,0.40
2023-01-29T08:53:08.993Z,0.70
2023-01-29T08:55:41.014Z,0.81
2023-01-29T08:58:11.448Z,0.80
2023-01-29T09:00:41.056Z,0.95
2023-01-29T09:03:08.516Z,0.96
2023-01-29T09:05:38.904Z,0.93
2023-01-29T09:08:08.877Z,0.97
2023-01-29T09:10:36.811Z,1.01
2023-01-29T09:13:07.880Z,1.09
2023-01-29T09:15:35.292Z,1.18
2023-01-29T09:18:06.135Z,1.28
2023-01-29T09:20:34.020Z,1.39
2023-01-29T09:23:09.751Z,1.51
2023-01-29T09:25:37.925Z,1.57
2023-01-29T09:28:06.250Z,1.66
2023-01-29T09:30:34.640Z,1.78
2023-01-29T09:33:02.013Z,1.86
2023-01-29T09:35:29.460Z,1.95
2023-01-29T09:37:56.927Z,2.42
2023-01-29T09:41:03.671Z,2.87
2023-01-29T09:43:54.737Z,3.01
2023-01-29T09:46:45.227Z,3.12
2023-01-29T09:49:34.203Z,3.03
2023-01-29T09:52:33.307Z,2.99
2023-01-29T09:55:35.359Z,3.13
2023-01-29T09:58:22.287Z,3.37
2023-01-29T10:01:38.702Z,3.70
2023-01-29T10:04:45.837Z,3.92
2023-01-29T10:08:01.480Z,3.98
2023-01-29T10:11:26.336Z,3.80
2023-01-29T10:14:17.097Z,3.90
2023-01-29T10:17:34.665Z,4.10
2023-01-29T10:20:34.566Z,4.61
2023-01-29T10:23:34.391Z,4.71
2023-01-29T10:26:02.701Z,4.66
2023-01-29T10:28:46.645Z,4.55
2023-01-29T10:31:33.152Z,4.47
2023-01-29T10:34:40.645Z,6.18
2023-01-29T10:37:28.213Z,10.97
2023-01-29T10:39:55.447Z,11.87
2023-01-29T10:42:41.229Z,13.93
2023-01-29T10:45:32.100Z,10.16
2023-01-29T10:48:44.945Z,13.40
2023-01-29T10:51:46.797Z,12.70
2023-01-29T10:54:51.297Z,14.12
2023-01-29T10:57:53.327Z,14.22
2023-01-29T11:00:36.507Z,11.06
2023-01-29T11:06:25.373Z,8.57
2023-01-29T11:12:18.597Z,14.52
2023-01-29T11:15:02.007Z,14.59
2023-01-29T11:17:29.554Z,15.17
2023-01-29T11:19:56.923Z,10.43
2023-01-29T11:22:28.488Z,8.44
2023-01-29T11:25:16.828Z,6.61
2023-01-29T11:27:52.948Z,7.05
2023-01-29T11:30:41.524Z,6.91
2023-01-29T11:33:23.663Z,7.72
2023-01-29T11:35:52.655Z,8.21
2023-01-29T11:38:28.678Z,8.80
2023-01-29T11:41:18.119Z,9.94
2023-01-29T11:43:45.351Z,10.14
2023-01-29T11:46:15.956Z,9.63
2023-01-29T11:48:52.006Z,8.68
2023-01-29T11:51:29.782Z,7.93
2023-01-29T11:54:04.369Z,7.98
2023-01-29T11:56:46.804Z,8.08
2023-01-29T11:59:44.026Z,7.82
2023-01-29T12:02:26.714Z,7.04
2023-01-29T12:05:07.353Z,7.45
2023-01-29T12:07:35.039Z,7.17
2023-01-29T12:10:06.192Z,7.08
2023-01-29T12:12:45.068Z,6.21
2023-01-29T12:15:25.211Z,6.00
2023-01-29T12:18:54.725Z,6.07
2023-01-29T12:22:00.780Z,6.60
2023-01-29T12:24:56.203Z,6.67
2023-01-29T12:27:34.392Z,6.64
2023-01-29T12:30:20.037Z,6.73
2023-01-29T12:33:21.931Z,6.93
2023-01-29T12:36:02.789Z,6.05
2023-01-29T12:38:30.093Z,6.71
2023-01-29T12:41:49.368Z,6.59
2023-01-29T12:44:54.756Z,6.95
2023-01-29T12:47:43.984Z,6.83
2023-01-29T12:50:37.109Z,6.98
2023-01-29T12:53:23.449Z,6.45
2023-01-29T12:56:41.429Z,6.49
2023-01-29T12:59:41.131Z,6.06
2023-01-29T13:03:04.709Z,6.10
2023-01-29T13:05:46.424Z,6.51
2023-01-29T13:08:54.075Z,6.98
2023-01-29T13:12:04.279Z,6.97
2023-01-29T13:14:59.660Z,7.16
2023-01-29T13:17:42.803Z,6.96
2023-01-29T13:20:44.866Z,6.22
2023-01-29T13:23:35.680Z,6.55
2023-01-29T13:26:03.801Z,6.69
2023-01-29T13:28:34.214Z,6.80
2023-01-29T13:31:33.224Z,7.14
2023-01-29T13:34:28.507Z,6.76
2023-01-29T13:37:01.759Z,6.85
2023-01-29T13:39:32.147Z,6.79
2023-01-29T13:42:03.265Z,6.90
2023-01-29T13:44:38.014Z,6.37
2023-01-29T13:47:09.900Z,6.68
2023-01-29T13:49:46.616Z,7.01
2023-01-29T13:52:46.461Z,6.87
2023-01-29T13:55:21.233Z,6.86
2023-01-29T13:57:53.985Z,6.94
2023-01-29T14:00:22.613Z,7.06
2023-01-29T14:02:55.976Z,7.21
2023-01-29T14:05:33.738Z,6.91
2023-01-29T14:08:14.065Z,6.97
2023-01-29T14:10:43.822Z,7.12
2023-01-29T14:13:19.905Z,7.09
2023-01-29T14:16:26.820Z,6.94
2023-01-29T14:19:01.322Z,6.68
2023-01-29T14:21:33.978Z,6.56
2023-01-29T14:24:20.809Z,6.85
2023-01-29T14:26:54.551Z,7.10
2023-01-29T14:29:34.943Z,7.02
2023-01-29T14:32:20.733Z,6.88
2023-01-29T14:35:01.261Z,6.95
2023-01-29T14:37:39.877Z,6.57
2023-01-29T14:40:20.559Z,6.79
2023-01-29T14:43:09.214Z,6.56
2023-01-29T14:45:41.844Z,6.47
2023-01-29T14:48:12.093Z,6.71
2023-01-29T14:50:49.038Z,7.03
2023-01-29T14:53:45.939Z,7.08
2023-01-29T14:56:24.457Z,6.88
2023-01-29T14:59:19.585Z,6.76
2023-01-29T15:01:54.964Z,7.03
2023-01-29T15:04:30.622Z,6.77
2023-01-29T15:07:17.333Z,7.14
2023-01-29T15:10:18.889Z,6.77
2023-01-29T15:13:15.585Z,6.94
2023-01-29T15:16:15.017Z,6.92
2023-01-29T15:18:44.008Z,6.80
2023-01-29T15:21:18.264Z,6.44
2023-01-29T15:23:50.598Z,6.14
2023-01-29T15:26:26.938Z,6.18
2023-01-29T15:29:03.406Z,6.16
2023-01-29T15:31:31.859Z,6.32
2023-01-29T15:34:07.963Z,6.17
2023-01-29T15:36:37.437Z,6.00
2023-01-29T15:39:25.238Z,5.94
2023-01-29T15:42:15.583Z,6.02
2023-01-29T15:44:46.636Z,6.20
2023-01-29T15:47:15.225Z,6.32
2023-01-29T15:49:42.963Z,6.18
2023-01-29T15:52:24.510Z,5.78
2023-01-29T15:54:53.071Z,5.72
2023-01-29T15:57:34.305Z,5.66
2023-01-29T16:00:03.786Z,5.60
2023-01-29T16:02:42.197Z,5.53
2023-01-29T16:05:22.867Z,5.47
2023-01-29T16:07:52.468Z,5.20
2023-01-29T16:10:30.491Z,5.11
2023-01-29T16:12:58.612Z,5.04
2023-01-29T16:15:40.159Z,4.92
2023-01-29T16:18:59.030Z,4.89
2023-01-29T16:21:38.773Z,4.92
2023-01-29T16:24:13.833Z,4.73
2023-01-29T16:26:48.020Z,4.67
2023-01-29T16:29:34.231Z,4.57
2023-01-29T16:32:02.962Z,4.54
2023-01-29T16:34:41.745Z,4.46
2023-01-29T16:37:26.504Z,4.38
2023-01-29T16:39:54.066Z,4.37
2023-01-29T16:42:27.479Z,4.34
2023-01-29T16:45:26.255Z,4.31
2023-01-29T16:48:33.706Z,4.28
2023-01-29T16:51:27.015Z,4.22
2023-01-29T16:54:23.232Z,4.16
2023-01-29T16:57:00.062Z,4.14
2023-01-29T16:59:36.674Z,4.11
2023-01-29T17:02:22.806Z,4.13
2023-01-29T17:04:54.462Z,4.03
2023-01-29T17:07:22.377Z,4.03
2023-01-29T17:09:59.949Z,4.05
2023-01-29T17:12:29.629Z,3.97
2023-01-29T17:15:31.887Z,3.87
2023-01-29T17:17:59.779Z,3.93
2023-01-29T17:20:27.890Z,3.96
2023-01-29T17:22:55.251Z,3.88
2023-01-29T17:25:23.771Z,3.78
2023-01-29T17:27:54.273Z,3.68
2023-01-29T17:30:24.031Z,3.45
2023-01-29T17:32:51.461Z,3.34
2023-01-29T17:35:21.274Z,3.27
2023-01-29T17:37:48.838Z,3.13
2023-01-29T17:40:41.327Z,3.08
2023-01-29T17:43:14.464Z,3.16
2023-01-29T17:45:41.889Z,3.27
2023-01-29T17:48:28.688Z,3.46
2023-01-29T17:51:03.395Z,3.43
2023-01-29T17:53:44.790Z,3.33
2023-01-29T17:56:33.092Z,3.31
2023-01-29T17:59:15.286Z,3.50
2023-01-29T18:01:48.067Z,3.44
2023-01-29T18:04:31.668Z,3.10
2023-01-29T18:07:03.534Z,2.85
2023-01-29T18:09:31.502Z,2.81
2023-01-29T18:12:03.907Z,2.79
2023-01-29T18:14:37.171Z,2.72
2023-01-29T18:17:12.260Z,2.51
2023-01-29T18:19:44.956Z,2.41
2023-01-29T18:22:17.146Z,2.33
2023-01-29T18:24:46.864Z,2.24
2023-01-29T18:27:17.819Z,2.16
2023-01-29T18:29:48.059Z,2.08
2023-01-29T18:32:22.777Z,1.98
2023-01-29T18:34:50.187Z,1.83
2023-01-29T18:37:25.575Z,1.88
2023-01-29T18:40:01.128Z,1.86
2023-01-29T18:42:40.964Z,1.86
2023-01-29T18:45:13.649Z,1.84
2023-01-29T18:48:04.435Z,1.87
2023-01-29T18:50:39.845Z,1.87
2023-01-29T18:53:07.875Z,1.81
2023-01-29T18:56:08.794Z,1.68
2023-01-29T18:58:51.936Z,1.59
2023-01-29T19:01:28.026Z,1.57
2023-01-29T19:04:01.002Z,1.59
2023-01-29T19:06:28.698Z,1.69
2023-01-29T19:09:18.962Z,1.69
2023-01-29T19:11:58.580Z,1.62
2023-01-29T19:14:31.565Z,1.52
2023-01-29T19:17:04.286Z,1.43
2023-01-29T19:19:35.244Z,1.38
2023-01-29T19:22:20.640Z,1.36
2023-01-29T19:26:54.995Z,1.24
2023-01-29T19:28:12.253Z,1.14
2023-01-29T19:30:39.786Z,1.15
2023-01-29T19:33:07.298Z,1.19
2023-01-29T19:35:34.516Z,1.13
2023-01-29T19:38:01.859Z,1.09
2023-01-29T19:40:29.192Z,1.06
2023-01-29T19:42:56.672Z,1.03
2023-01-29T19:45:49.071Z,0.93
2023-01-29T19:48:21.332Z,0.83
2023-01-29T19:51:00.132Z,0.89
2023-01-29T19:53:31.595Z,0.85
2023-01-29T19:56:09.447Z,0.86
2023-01-29T19:58:37.446Z,0.84
2023-01-29T20:01:19.391Z,0.80
2023-01-29T20:03:49.216Z,0.78
2023-01-29T20:06:23.609Z,0.79
2023-01-29T20:08:51.793Z,0.71
2023-01-29T20:11:22.661Z,0.72
2023-01-29T20:13:52.552Z,0.70
2023-01-29T20:16:21.068Z,0.66
2023-01-29T20:18:48.476Z,0.62
2023-01-29T20:21:22.790Z,0.62
2023-01-29T20:23:51.702Z,0.59
2023-01-29T20:26:22.413Z,0.57
2023-01-29T20:28:50.200Z,0.57
2023-01-29T20:31:17.585Z,0.49
2023-01-29T20:33:45.049Z,0.54
2023-01-29T20:36:14.812Z,0.48
2023-01-29T20:38:42.241Z,0.45
2023-01-29T20:41:14.507Z,0.39
2023-01-29T20:43:43.652Z,0.37
2023-01-29T20:46:11.938Z,0.39
2023-01-29T20:48:39.472Z,0.39
2023-01-29T20:51:15.761Z,0.32
2023-01-29T20:53:47.218Z,0.30
2023-01-29T20:56:17.280Z,0.23
2023-01-29T20:58:47.410Z,0.18
2023-01-29T21:01:19.803Z,0.16
2023-01-29T21:03:48.504Z,0.14
2023-01-29T21:06:18.286Z,0.12
2023-01-29T21:08:47.884Z,0.18
2023-01-29T21:11:17.569Z,0.19
2023-01-29T21:13:46.815Z,0.23
2023-01-29T21:16:14.191Z,0.12
2023-01-29T21:18:41.508Z,-0.01
2023-01-29T21:21:10.830Z,-0.02
2023-01-29T21:23:41.746Z,-0.03
2023-01-29T21:26:09.207Z,-0.04
2023-01-29T21:28:36.614Z,-0.01
2023-01-29T21:31:08.477Z,-0.05
2023-01-29T21:33:36.989Z,-0.09
2023-01-29T21:36:05.428Z,-0.09
2023-01-29T21:38:35.700Z,-0.16
2023-01-29T21:41:08.101Z,-0.23
2023-01-29T21:43:36.575Z,-0.31
2023-01-29T21:46:13.564Z,-0.39
2023-01-29T21:48:41.457Z,-0.39
2023-01-29T21:51:09.329Z,-0.42
2023-01-29T21:53:37.247Z,-0.40
2023-01-29T21:56:06.134Z,-0.42
2023-01-29T21:58:33.490Z,-0.45
2023-01-29T22:01:34.708Z,-0.34
2023-01-29T22:03:48.064Z,-0.40
2023-01-29T22:06:15.882Z,-0.46
2023-01-29T22:08:43.362Z,-0.51
2023-01-29T22:11:11.390Z,-0.54
2023-01-29T22:13:41.767Z,-0.56
2023-01-29T22:16:09.299Z,-0.55
2023-01-29T22:18:41.043Z,-0.59
2023-01-29T22:21:08.548Z,-0.59
2023-01-29T22:23:35.866Z,-0.66
2023-01-29T22:26:06.797Z,-0.64
2023-01-29T22:28:35.088Z,-0.70
2023-01-29T22:31:04.930Z,-0.73
2023-01-29T22:33:33.492Z,-0.69
2023-01-29T22:36:01.556Z,-0.67
2023-01-29T22:38:29.171Z,-0.74
2023-01-29T22:40:59.848Z,-0.81
2023-01-29T22:43:27.223Z,-0.91
2023-01-29T22:45:56.310Z,-0.95
2023-01-29T22:48:24.042Z,-1.04
2023-01-29T22:51:11.948Z,-1.08
2023-01-29T22:53:58.225Z,-1.14
2023-01-29T22:56:29.477Z,-1.15
2023-01-29T22:59:02.886Z,-1.19
2023-01-29T23:01:32.613Z,-1.29
2023-01-29T23:04:00.019Z,-1.18
2023-01-29T23:06:27.399Z,-1.24
2023-01-29T23:08:54.676Z,-1.26
2023-01-29T23:11:24.945Z,-1.30
2023-01-29T23:13:57.234Z,-1.35
2023-01-29T23:16:28.043Z,-1.36
2023-01-29T23:18:56.814Z,-1.42
2023-01-29T23:21:25.370Z,-1.43
2023-01-29T23:23:55.261Z,-1.39
2023-01-29T23:26:41.677Z,-1.43
2023-01-29T23:29:09.837Z,-1.46
2023-01-29T23:31:37.535Z,-1.49
2023-01-29T23:34:05.188Z,-1.43
2023-01-29T23:36:32.422Z,-1.50
2023-01-29T23:38:59.680Z,-1.58
2023-01-29T23:41:27.008Z,-1.61
2023-01-29T23:43:54.277Z,-1.68
2023-01-29T23:46:21.675Z,-1.71
2023-01-29T23:48:48.943Z,-1.77
2023-01-29T23:51:16.279Z,-1.82
2023-01-29T23:53:43.664Z,-1.85
2023-01-29T23:56:11.565Z,-1.79
2023-01-29T23:58:39.084Z,-1.75
